createdAt,value
2018-03-29T00:00:57.898Z,8.87
2018-03-29T00:03:28.866Z,8.82
2018-03-29T00:05:59.739Z,8.79
2018-03-29T00:08:30.586Z,8.81
2018-03-29T00:11:01.422Z,8.80
2018-03-29T00:13:32.318Z,8.83
2018-03-29T00:16:03.193Z,8.86
2018-03-29T00:18:34.070Z,8.80
2018-03-29T00:21:04.943Z,8.75
2018-03-29T00:23:35.797Z,8.79
2018-03-29T00:26:06.627Z,8.81
2018-03-29T00:28:37.543Z,8.77
2018-03-29T00:31:08.367Z,8.80
2018-03-29T00:33:39.249Z,8.73
2018-03-29T00:36:10.040Z,8.73
2018-03-29T00:38:40.940Z,8.77
2018-03-29T00:41:11.866Z,8.74
2018-03-29T00:43:42.735Z,8.69
2018-03-29T00:46:13.570Z,8.65
2018-03-29T00:48:44.412Z,8.69
2018-03-29T00:51:15.255Z,8.64
2018-03-29T00:53:46.161Z,8.68
2018-03-29T00:56:16.983Z,8.66
2018-03-29T00:58:47.858Z,8.66
2018-03-29T01:01:18.676Z,8.66
2018-03-29T01:03:49.488Z,8.69
2018-03-29T01:06:20.307Z,8.66
2018-03-29T01:08:51.150Z,8.70
2018-03-29T01:11:21.963Z,8.68
2018-03-29T01:13:52.988Z,8.58
2018-03-29T01:16:23.840Z,8.62
2018-03-29T01:18:54.723Z,8.64
2018-03-29T01:21:25.572Z,8.61
2018-03-29T01:23:56.399Z,8.56
2018-03-29T01:26:27.253Z,8.59
2018-03-29T01:28:58.107Z,8.51
2018-03-29T01:31:28.934Z,8.48
2018-03-29T01:33:59.802Z,8.46
2018-03-29T01:36:30.642Z,8.47
2018-03-29T01:39:01.471Z,8.52
2018-03-29T01:41:32.293Z,8.56
2018-03-29T01:44:03.183Z,8.50
2018-03-29T01:46:34.038Z,8.39
2018-03-29T01:49:04.870Z,8.22
2018-03-29T01:51:35.683Z,8.09
2018-03-29T01:54:06.545Z,7.96
2018-03-29T01:56:37.405Z,7.81
2018-03-29T01:59:08.267Z,7.68
2018-03-29T02:01:39.073Z,7.51
2018-03-29T02:04:09.916Z,7.42
2018-03-29T02:06:40.747Z,7.31
2018-03-29T02:09:11.643Z,7.23
2018-03-29T02:11:42.515Z,7.14
2018-03-29T02:14:13.360Z,7.05
2018-03-29T02:16:45.233Z,6.96
2018-03-29T02:19:16.128Z,6.98
2018-03-29T02:21:46.991Z,6.91
2018-03-29T02:24:17.829Z,6.82
2018-03-29T02:26:48.669Z,6.79
2018-03-29T02:29:19.544Z,6.74
2018-03-29T02:31:50.420Z,6.76
2018-03-29T02:34:21.265Z,6.66
2018-03-29T02:36:52.144Z,6.59
2018-03-29T02:39:23.022Z,6.53
2018-03-29T02:41:53.888Z,6.52
2018-03-29T02:44:24.725Z,6.44
2018-03-29T02:46:55.559Z,6.46
2018-03-29T02:49:26.471Z,6.42
2018-03-29T02:51:57.341Z,6.41
2018-03-29T02:54:28.232Z,6.28
2018-03-29T02:56:59.050Z,6.23
2018-03-29T02:59:29.879Z,6.22
2018-03-29T03:02:00.715Z,6.22
2018-03-29T03:04:31.557Z,6.25
2018-03-29T03:07:02.390Z,6.22
2018-03-29T03:09:33.248Z,6.17
2018-03-29T03:12:04.038Z,6.02
2018-03-29T03:14:34.878Z,5.91
2018-03-29T03:17:05.702Z,5.78
2018-03-29T03:19:36.571Z,5.72
2018-03-29T03:22:07.377Z,5.57
2018-03-29T03:24:38.281Z,5.49
2018-03-29T03:27:09.149Z,5.50
2018-03-29T03:29:40.001Z,5.32
2018-03-29T03:32:10.806Z,5.32
2018-03-29T03:34:41.637Z,5.30
2018-03-29T03:37:12.498Z,5.27
2018-03-29T03:39:43.412Z,5.20
2018-03-29T03:42:14.271Z,5.22
2018-03-29T03:44:45.105Z,5.04
2018-03-29T03:47:15.943Z,4.99
2018-03-29T03:49:46.787Z,4.89
2018-03-29T03:52:17.632Z,4.92
2018-03-29T03:54:48.537Z,4.96
2018-03-29T03:57:19.389Z,4.95
2018-03-29T03:59:50.210Z,4.83
2018-03-29T04:02:21.069Z,4.80
2018-03-29T04:04:51.941Z,4.72
2018-03-29T04:07:22.814Z,4.71
2018-03-29T04:09:53.645Z,4.67
2018-03-29T04:12:24.519Z,4.64
2018-03-29T04:14:55.330Z,4.61
2018-03-29T04:17:26.222Z,4.49
2018-03-29T04:19:57.183Z,4.58
2018-03-29T04:22:27.966Z,4.54
2018-03-29T04:24:58.837Z,4.70
2018-03-29T04:27:29.716Z,4.84
2018-03-29T04:30:00.570Z,4.84
2018-03-29T04:32:31.405Z,4.83
2018-03-29T04:35:02.293Z,4.87
2018-03-29T04:37:33.163Z,4.93
2018-03-29T04:40:04.037Z,4.97
2018-03-29T04:42:34.840Z,5.02
2018-03-29T04:45:05.698Z,5.07
2018-03-29T04:47:36.511Z,5.10
2018-03-29T04:50:07.348Z,5.12
2018-03-29T04:52:38.195Z,5.16
2018-03-29T04:55:09.040Z,5.14
2018-03-29T04:57:39.876Z,5.26
2018-03-29T05:00:10.795Z,5.24
2018-03-29T05:02:41.623Z,5.22
2018-03-29T05:05:12.480Z,5.26
2018-03-29T05:07:43.337Z,5.21
2018-03-29T05:10:14.185Z,5.25
2018-03-29T05:12:45.059Z,5.21
2018-03-29T05:15:15.927Z,5.15
2018-03-29T05:17:46.796Z,5.23
2018-03-29T05:20:17.693Z,5.23
2018-03-29T05:22:48.545Z,5.21
2018-03-29T05:25:19.385Z,5.23
2018-03-29T05:27:53.185Z,5.25
2018-03-29T05:30:24.086Z,5.24
2018-03-29T05:32:54.922Z,5.24
2018-03-29T05:35:25.794Z,5.33
2018-03-29T05:37:56.622Z,5.30
2018-03-29T05:40:27.478Z,5.37
2018-03-29T05:42:58.409Z,5.44
2018-03-29T05:45:29.223Z,5.55
2018-03-29T05:48:00.054Z,5.74
2018-03-29T05:50:30.902Z,5.93
2018-03-29T05:53:01.769Z,5.96
2018-03-29T05:55:32.612Z,5.96
2018-03-29T05:58:03.472Z,5.93
2018-03-29T06:00:34.297Z,5.86
2018-03-29T06:03:05.146Z,5.80
2018-03-29T06:05:36.001Z,5.85
2018-03-29T06:08:06.896Z,5.83
2018-03-29T06:10:37.808Z,5.94
2018-03-29T06:13:08.652Z,5.95
2018-03-29T06:15:39.510Z,6.01
2018-03-29T06:18:13.194Z,5.95
2018-03-29T06:20:44.088Z,6.02
2018-03-29T06:23:14.991Z,6.14
2018-03-29T06:25:45.782Z,6.41
2018-03-29T06:28:16.601Z,6.51
2018-03-29T06:30:47.506Z,6.82
2018-03-29T06:33:18.385Z,6.98
2018-03-29T06:35:49.265Z,7.55
2018-03-29T06:38:20.114Z,7.70
2018-03-29T06:40:50.966Z,7.50
2018-03-29T06:43:21.804Z,7.23
2018-03-29T06:45:52.686Z,7.15
2018-03-29T06:48:23.530Z,7.28
2018-03-29T06:50:54.392Z,7.15
2018-03-29T06:53:25.251Z,7.16
2018-03-29T06:55:56.085Z,7.30
2018-03-29T06:58:26.954Z,7.55
2018-03-29T07:00:57.873Z,7.92
2018-03-29T07:03:28.666Z,9.11
2018-03-29T07:05:59.521Z,9.86
2018-03-29T07:08:32.410Z,9.91
2018-03-29T07:11:03.251Z,10.41
2018-03-29T07:13:34.091Z,10.59
2018-03-29T07:16:04.946Z,11.16
2018-03-29T07:18:35.761Z,10.58
2018-03-29T07:21:06.588Z,9.77
2018-03-29T07:23:37.424Z,9.24
2018-03-29T07:26:08.253Z,9.22
2018-03-29T07:28:39.080Z,8.93
2018-03-29T07:31:11.097Z,8.71
2018-03-29T07:33:41.969Z,8.47
2018-03-29T07:36:12.793Z,8.26
2018-03-29T07:38:45.666Z,8.25
2018-03-29T07:41:16.545Z,8.54
2018-03-29T07:43:47.394Z,10.09
2018-03-29T07:46:18.220Z,9.94
2018-03-29T07:48:49.009Z,9.12
2018-03-29T07:51:19.842Z,8.72
2018-03-29T07:53:50.688Z,8.47
2018-03-29T07:56:21.518Z,8.18
2018-03-29T07:58:52.396Z,7.93
2018-03-29T08:01:23.233Z,8.48
2018-03-29T08:03:54.122Z,8.71
2018-03-29T08:06:24.946Z,8.80
2018-03-29T08:08:55.758Z,8.79
2018-03-29T08:11:26.590Z,8.55
2018-03-29T08:13:57.409Z,8.06
2018-03-29T08:16:28.262Z,7.69
2018-03-29T08:18:59.134Z,8.09
2018-03-29T08:21:29.944Z,8.73
2018-03-29T08:24:00.768Z,9.77
2018-03-29T08:26:31.614Z,9.62
2018-03-29T08:29:02.483Z,9.34
2018-03-29T08:31:33.334Z,9.23
2018-03-29T08:34:04.156Z,9.13
2018-03-29T08:36:35.043Z,9.78
2018-03-29T08:39:05.873Z,11.03
2018-03-29T08:41:36.745Z,10.80
2018-03-29T08:44:07.618Z,11.31
2018-03-29T08:46:38.486Z,11.67
2018-03-29T08:49:09.337Z,11.70
2018-03-29T08:51:40.261Z,12.34
2018-03-29T08:54:11.132Z,12.86
2018-03-29T08:56:42.010Z,13.03
2018-03-29T08:59:12.831Z,12.70
2018-03-29T09:01:43.716Z,13.21
2018-03-29T09:04:14.589Z,13.65
2018-03-29T09:06:45.448Z,12.29
2018-03-29T09:09:16.372Z,12.13
2018-03-29T09:11:47.265Z,11.91
2018-03-29T09:14:18.120Z,10.81
2018-03-29T09:16:49.009Z,11.15
2018-03-29T09:19:19.841Z,10.54
2018-03-29T09:21:50.682Z,10.13
2018-03-29T09:24:21.522Z,10.26
2018-03-29T09:26:52.389Z,11.02
2018-03-29T09:29:23.281Z,11.03
2018-03-29T09:31:54.231Z,10.69
2018-03-29T09:34:25.106Z,11.23
2018-03-29T09:36:56.035Z,11.85
2018-03-29T09:39:26.912Z,11.45
2018-03-29T09:41:57.777Z,11.33
2018-03-29T09:44:28.704Z,10.86
2018-03-29T09:46:59.586Z,10.83
2018-03-29T09:49:30.425Z,11.89
2018-03-29T09:52:01.387Z,12.03
2018-03-29T09:54:32.255Z,12.17
2018-03-29T09:57:03.418Z,12.82
2018-03-29T09:59:34.306Z,13.65
2018-03-29T10:02:11.298Z,13.54
2018-03-29T10:04:42.218Z,13.30
2018-03-29T10:07:19.298Z,13.58
2018-03-29T10:09:50.186Z,14.21
2018-03-29T10:12:21.055Z,14.30
2018-03-29T10:14:51.900Z,14.00
2018-03-29T10:17:22.742Z,13.88
2018-03-29T10:19:53.621Z,13.26
2018-03-29T10:22:24.474Z,12.51
2018-03-29T10:24:55.349Z,12.25
2018-03-29T10:27:26.236Z,11.77
2018-03-29T10:29:57.124Z,12.01
2018-03-29T10:32:27.988Z,11.73
2018-03-29T10:34:58.855Z,11.74
2018-03-29T10:37:29.758Z,11.96
2018-03-29T10:40:00.592Z,12.45
2018-03-29T10:42:31.498Z,12.55
2018-03-29T10:45:02.355Z,13.00
2018-03-29T10:47:33.197Z,12.41
2018-03-29T10:50:04.138Z,12.32
2018-03-29T10:52:35.011Z,12.00
2018-03-29T10:55:05.888Z,12.11
2018-03-29T10:57:36.733Z,12.43
2018-03-29T11:00:08.623Z,12.49
2018-03-29T11:02:39.532Z,11.19
2018-03-29T11:05:10.395Z,12.22
2018-03-29T11:07:41.253Z,13.31
2018-03-29T11:10:12.089Z,13.49
2018-03-29T11:12:42.973Z,13.51
2018-03-29T11:15:13.886Z,14.19
2018-03-29T11:17:44.818Z,14.99
2018-03-29T11:20:15.684Z,14.89
2018-03-29T11:22:46.552Z,15.05
2018-03-29T11:25:17.387Z,14.94
2018-03-29T11:27:48.259Z,15.43
2018-03-29T11:30:19.155Z,15.87
2018-03-29T11:32:49.997Z,16.18
2018-03-29T11:35:20.796Z,16.19
2018-03-29T11:37:51.682Z,16.75
2018-03-29T11:40:22.532Z,16.48
2018-03-29T11:42:53.416Z,16.53
2018-03-29T11:45:24.279Z,16.56
2018-03-29T11:47:55.196Z,16.07
2018-03-29T11:50:26.086Z,15.95
2018-03-29T11:52:57.017Z,15.76
2018-03-29T11:55:28.928Z,15.34
2018-03-29T11:57:59.796Z,15.88
2018-03-29T12:00:31.508Z,16.44
2018-03-29T12:03:02.460Z,16.78
2018-03-29T12:05:33.325Z,16.70
2018-03-29T12:08:04.267Z,16.78
2018-03-29T12:10:35.099Z,16.97
2018-03-29T12:13:06.020Z,16.55
2018-03-29T12:15:36.910Z,16.16
2018-03-29T12:18:07.793Z,15.97
2018-03-29T12:20:38.678Z,15.80
2018-03-29T12:23:09.520Z,15.20
2018-03-29T12:25:40.394Z,14.67
2018-03-29T12:28:11.273Z,14.06
2018-03-29T12:30:42.097Z,14.78
2018-03-29T12:33:12.971Z,14.66
2018-03-29T12:35:43.797Z,14.51
2018-03-29T12:38:14.631Z,14.33
2018-03-29T12:40:45.443Z,14.53
2018-03-29T12:43:16.333Z,14.19
2018-03-29T12:45:47.135Z,13.76
2018-03-29T12:48:17.952Z,13.75
2018-03-29T12:50:48.718Z,13.33
2018-03-29T12:53:20.439Z,12.79
2018-03-29T12:55:51.288Z,13.43
2018-03-29T12:58:22.154Z,13.11
2018-03-29T13:00:53.014Z,13.68
2018-03-29T13:03:23.890Z,14.20
2018-03-29T13:05:54.768Z,15.26
2018-03-29T13:08:25.565Z,15.82
2018-03-29T13:10:56.401Z,15.66
2018-03-29T13:13:27.208Z,14.54
2018-03-29T13:15:58.054Z,15.12
2018-03-29T13:18:28.911Z,15.46
2018-03-29T13:20:59.759Z,16.90
2018-03-29T13:23:30.619Z,17.93
2018-03-29T13:26:01.454Z,19.85
2018-03-29T13:28:32.370Z,19.84
2018-03-29T13:31:03.298Z,17.98
2018-03-29T13:33:34.144Z,18.66
2018-03-29T13:36:04.972Z,19.83
2018-03-29T13:38:35.794Z,21.83
2018-03-29T13:41:06.594Z,21.93
2018-03-29T13:43:37.447Z,22.00
2018-03-29T13:46:08.386Z,22.07
2018-03-29T13:48:39.280Z,20.60
2018-03-29T13:51:10.092Z,19.33
2018-03-29T13:53:41.019Z,20.05
2018-03-29T13:56:11.889Z,18.76
2018-03-29T13:58:42.721Z,17.76
2018-03-29T14:01:13.538Z,17.70
2018-03-29T14:03:44.435Z,16.21
2018-03-29T14:06:15.257Z,15.36
2018-03-29T14:08:46.125Z,15.39
2018-03-29T14:11:16.960Z,15.43
2018-03-29T14:13:47.903Z,15.52
2018-03-29T14:16:18.748Z,15.06
2018-03-29T14:18:49.590Z,15.44
2018-03-29T14:21:20.382Z,16.20
2018-03-29T14:23:51.346Z,16.40
2018-03-29T14:26:22.196Z,16.61
2018-03-29T14:28:53.037Z,15.91
2018-03-29T14:31:23.870Z,16.48
2018-03-29T14:33:54.794Z,17.50
2018-03-29T14:36:25.715Z,17.83
2018-03-29T14:38:56.576Z,17.29
2018-03-29T14:41:27.457Z,16.58
2018-03-29T14:43:58.259Z,15.59
2018-03-29T14:46:29.111Z,14.94
2018-03-29T14:48:59.932Z,13.90
2018-03-29T14:51:30.738Z,13.03
2018-03-29T14:54:01.587Z,12.83
2018-03-29T14:56:32.444Z,12.63
2018-03-29T14:59:03.282Z,13.08
2018-03-29T15:01:34.110Z,13.31
2018-03-29T15:04:04.956Z,13.66
2018-03-29T15:06:35.844Z,15.22
2018-03-29T15:09:06.714Z,17.12
2018-03-29T15:11:37.534Z,20.10
2018-03-29T15:14:08.399Z,18.52
2018-03-29T15:16:39.186Z,18.90
2018-03-29T15:19:10.051Z,18.20
2018-03-29T15:21:40.910Z,16.75
2018-03-29T15:24:11.769Z,15.84
2018-03-29T15:26:42.584Z,14.94
2018-03-29T15:29:13.547Z,14.22
2018-03-29T15:31:44.356Z,14.12
2018-03-29T15:34:15.193Z,13.06
2018-03-29T15:36:46.039Z,12.74
2018-03-29T15:39:16.859Z,12.54
2018-03-29T15:41:47.714Z,12.63
2018-03-29T15:44:18.565Z,12.77
2018-03-29T15:46:49.378Z,12.26
2018-03-29T15:49:22.160Z,12.72
2018-03-29T15:51:52.941Z,12.13
2018-03-29T15:54:23.796Z,11.85
2018-03-29T15:56:54.620Z,11.59
2018-03-29T15:59:25.487Z,11.62
2018-03-29T16:01:56.324Z,11.59
2018-03-29T16:04:27.198Z,11.79
2018-03-29T16:06:58.025Z,12.22
2018-03-29T16:09:28.870Z,12.26
2018-03-29T16:11:59.749Z,12.16
2018-03-29T16:14:30.615Z,12.04
2018-03-29T16:17:01.466Z,11.84
2018-03-29T16:19:32.317Z,11.67
2018-03-29T16:22:03.143Z,11.45
2018-03-29T16:24:33.978Z,11.47
2018-03-29T16:27:04.803Z,11.40
2018-03-29T16:29:35.639Z,11.22
2018-03-29T16:32:06.487Z,11.04
2018-03-29T16:34:37.297Z,10.89
2018-03-29T16:37:08.100Z,10.92
2018-03-29T16:39:38.954Z,10.91
2018-03-29T16:42:09.774Z,10.67
2018-03-29T16:44:40.622Z,10.66
2018-03-29T16:47:11.464Z,10.44
2018-03-29T16:49:42.333Z,10.45
2018-03-29T16:52:13.171Z,10.36
2018-03-29T16:54:44.060Z,10.21
2018-03-29T16:57:14.938Z,10.16
2018-03-29T16:59:45.777Z,10.22
2018-03-29T17:02:16.584Z,10.02
2018-03-29T17:04:47.420Z,9.94
2018-03-29T17:07:18.250Z,9.80
2018-03-29T17:09:49.127Z,9.69
2018-03-29T17:12:19.965Z,9.50
2018-03-29T17:14:50.834Z,9.38
2018-03-29T17:17:21.703Z,9.38
2018-03-29T17:19:52.579Z,9.40
2018-03-29T17:22:23.377Z,9.40
2018-03-29T17:24:54.262Z,9.20
2018-03-29T17:27:26.073Z,9.08
2018-03-29T17:29:57.838Z,9.04
2018-03-29T17:32:35.577Z,9.05
2018-03-29T17:35:06.439Z,8.92
2018-03-29T17:37:37.297Z,8.92
2018-03-29T17:40:08.098Z,8.93
2018-03-29T17:42:38.902Z,8.85
2018-03-29T17:45:09.741Z,8.73
2018-03-29T17:47:40.590Z,8.64
2018-03-29T17:50:11.430Z,8.44
2018-03-29T17:52:42.304Z,8.32
2018-03-29T17:55:13.153Z,8.26
2018-03-29T17:57:43.994Z,8.15
2018-03-29T18:00:14.827Z,7.99
2018-03-29T18:02:45.615Z,7.83
2018-03-29T18:05:16.434Z,7.71
2018-03-29T18:07:47.239Z,7.71
2018-03-29T18:10:18.066Z,7.61
2018-03-29T18:12:48.951Z,7.54
2018-03-29T18:15:19.782Z,7.55
2018-03-29T18:17:50.608Z,7.45
2018-03-29T18:20:21.466Z,7.35
2018-03-29T18:22:52.296Z,7.32
2018-03-29T18:25:23.183Z,7.33
2018-03-29T18:27:54.046Z,7.29
2018-03-29T18:30:24.911Z,7.21
2018-03-29T18:32:55.754Z,7.19
2018-03-29T18:35:26.621Z,7.24
2018-03-29T18:37:57.499Z,7.25
2018-03-29T18:40:28.442Z,7.26
2018-03-29T18:42:59.275Z,7.25
2018-03-29T18:45:30.219Z,7.23
2018-03-29T18:48:01.066Z,7.21
2018-03-29T18:50:31.964Z,7.38
2018-03-29T18:53:02.821Z,7.64
2018-03-29T18:55:33.748Z,7.81
2018-03-29T18:58:05.641Z,7.84
2018-03-29T19:00:36.521Z,7.86
2018-03-29T19:03:07.401Z,7.74
2018-03-29T19:05:38.301Z,7.72
2018-03-29T19:08:09.158Z,7.78
2018-03-29T19:10:39.984Z,7.82
2018-03-29T19:13:10.848Z,7.82
2018-03-29T19:15:41.688Z,7.88
2018-03-29T19:18:12.546Z,7.82
2018-03-29T19:20:43.463Z,7.73
2018-03-29T19:23:14.299Z,7.70
2018-03-29T19:25:45.206Z,7.73
2018-03-29T19:28:16.062Z,7.67
2018-03-29T19:30:46.894Z,7.70
2018-03-29T19:33:17.748Z,7.74
2018-03-29T19:35:48.592Z,7.73
2018-03-29T19:38:19.487Z,7.66
2018-03-29T19:40:50.378Z,7.72
2018-03-29T19:43:21.231Z,7.72
2018-03-29T19:45:52.122Z,7.79
2018-03-29T19:48:22.971Z,7.76
2018-03-29T19:50:53.864Z,7.83
2018-03-29T19:53:24.744Z,7.79
2018-03-29T19:55:55.626Z,7.82
2018-03-29T19:58:26.458Z,7.82
2018-03-29T20:00:57.294Z,7.88
2018-03-29T20:03:28.149Z,7.75
2018-03-29T20:05:59.053Z,7.71
2018-03-29T20:08:29.923Z,7.76
2018-03-29T20:11:00.887Z,7.83
2018-03-29T20:13:31.709Z,7.79
2018-03-29T20:16:02.604Z,7.66
2018-03-29T20:18:33.522Z,7.54
2018-03-29T20:21:05.136Z,7.31
2018-03-29T20:23:35.970Z,7.23
2018-03-29T20:26:06.804Z,7.30
2018-03-29T20:28:37.645Z,7.31
2018-03-29T20:31:08.503Z,7.34
2018-03-29T20:33:39.356Z,7.31
2018-03-29T20:36:10.276Z,7.18
2018-03-29T20:38:41.096Z,7.12
2018-03-29T20:41:13.035Z,6.91
2018-03-29T20:43:43.893Z,6.80
2018-03-29T20:46:14.726Z,6.64
2018-03-29T20:48:45.538Z,6.53
2018-03-29T20:51:16.373Z,6.56
2018-03-29T20:53:47.210Z,6.64
2018-03-29T20:56:18.050Z,6.51
2018-03-29T20:58:48.845Z,6.29
2018-03-29T21:01:19.723Z,6.17
2018-03-29T21:03:50.603Z,6.09
2018-03-29T21:06:21.461Z,5.94
2018-03-29T21:08:52.292Z,5.73
2018-03-29T21:11:23.126Z,5.45
2018-03-29T21:13:53.973Z,5.35
2018-03-29T21:16:24.916Z,5.23
2018-03-29T21:18:55.680Z,5.06
2018-03-29T21:21:26.513Z,4.98
2018-03-29T21:23:57.391Z,4.97
2018-03-29T21:26:28.234Z,4.82
2018-03-29T21:28:59.132Z,4.71
2018-03-29T21:31:29.930Z,4.59
2018-03-29T21:34:00.759Z,4.58
2018-03-29T21:36:31.630Z,4.49
2018-03-29T21:39:02.456Z,4.36
2018-03-29T21:41:33.420Z,4.34
2018-03-29T21:44:04.308Z,4.37
2018-03-29T21:46:35.182Z,4.29
2018-03-29T21:49:06.018Z,4.14
2018-03-29T21:51:36.888Z,4.08
2018-03-29T21:54:07.682Z,4.01
2018-03-29T21:56:38.569Z,4.00
2018-03-29T21:59:09.431Z,3.87
2018-03-29T22:01:47.396Z,3.98
2018-03-29T22:04:18.194Z,3.85
2018-03-29T22:06:49.034Z,3.90
2018-03-29T22:09:19.819Z,3.91
2018-03-29T22:11:50.681Z,3.80
2018-03-29T22:14:22.542Z,3.68
2018-03-29T22:16:53.434Z,3.63
2018-03-29T22:19:24.329Z,3.57
2018-03-29T22:21:55.233Z,3.52
2018-03-29T22:24:26.071Z,3.65
2018-03-29T22:26:56.926Z,3.72
2018-03-29T22:29:27.762Z,3.84
2018-03-29T22:31:58.643Z,3.93
2018-03-29T22:34:29.508Z,4.02
2018-03-29T22:37:00.358Z,3.86
2018-03-29T22:39:31.150Z,3.81
2018-03-29T22:42:01.979Z,3.81
2018-03-29T22:44:32.847Z,3.70
2018-03-29T22:47:03.721Z,3.62
2018-03-29T22:49:34.634Z,3.65
2018-03-29T22:52:05.494Z,3.50
2018-03-29T22:54:36.309Z,3.39
2018-03-29T22:57:07.177Z,3.28
2018-03-29T22:59:38.003Z,3.38
2018-03-29T23:02:08.869Z,3.62
2018-03-29T23:04:39.697Z,3.67
2018-03-29T23:07:10.692Z,3.76
2018-03-29T23:09:41.491Z,3.98
2018-03-29T23:12:12.290Z,3.92
2018-03-29T23:14:43.106Z,3.90
2018-03-29T23:17:13.999Z,3.85
2018-03-29T23:19:44.831Z,3.94
2018-03-29T23:22:15.709Z,3.89
2018-03-29T23:24:46.539Z,3.82
2018-03-29T23:27:17.386Z,3.80
2018-03-29T23:29:48.273Z,3.72
2018-03-29T23:32:19.109Z,3.75
2018-03-29T23:34:49.937Z,3.71
2018-03-29T23:37:20.759Z,3.82
2018-03-29T23:39:51.621Z,3.81
2018-03-29T23:42:22.455Z,3.78
2018-03-29T23:44:53.303Z,3.65
2018-03-29T23:47:24.190Z,3.68
2018-03-29T23:49:55.024Z,3.65
2018-03-29T23:52:25.857Z,3.59
2018-03-29T23:54:56.729Z,3.58
2018-03-29T23:57:27.557Z,3.66
2018-03-29T23:59:58.398Z,3.50
